Time;durP1;ratioP1;P1;durP2;ratioP2;P2;SDS_P1;SDS_P2;PMS_P1;PMS_P2;Temp;Humidity;BMP_temperature;BMP_pressure;BME280_temperature;BME280_humidity;BME280_pressure;Samples;Min_cycle;Max_cycle;Signal;HPM_P1;HPM_P2
2021/12/16 08:31:50;;;;;;;119.63;26.13;;;6.00;99.90;;;;;;5151816;27;1293043;-64
2021/12/16 08:34:17;;;;;;;;;;;6.00;99.90;;;;;;5164146;27;20367;-64
2021/12/16 08:36:43;;;;;;;118.85;29.15;;;6.10;99.90;;;;;;5130897;27;20018;-65
2021/12/16 08:39:10;;;;;;;134.90;29.58;;;6.00;99.90;;;;;;5122765;27;20496;-65
2021/12/16 08:41:44;;;;;;;135.60;29.65;;;6.00;99.90;;;;;;5124624;27;20435;-65
2021/12/16 08:44:13;;;;;;;112.13;28.67;;;6.00;99.90;;;;;;5125210;27;20051;-62
2021/12/16 08:46:41;;;;;;;131.32;26.25;;;6.10;99.90;;;;;;5140132;27;20447;-64
2021/12/16 08:49:08;;;;;;;122.68;25.52;;;6.10;99.90;;;;;;5123913;27;20129;-64
2021/12/16 08:51:35;;;;;;;;;;;6.10;99.90;;;;;;5140790;27;20040;-64
2021/12/16 08:54:02;;;;;;;62.72;21.65;;;6.10;99.90;;;;;;5141879;27;19919;-65
2021/12/16 08:56:28;;;;;;;;;;;6.20;99.90;;;;;;5119484;27;20040;-64
2021/12/16 08:58:55;;;;;;;128.15;23.35;;;6.20;99.90;;;;;;5132850;27;19934;-65
2021/12/16 09:01:25;;;;;;;68.63;22.45;;;6.20;99.90;;;;;;5114452;27;20051;-64
2021/12/16 09:03:52;;;;;;;66.88;20.95;;;6.20;99.90;;;;;;5124050;27;20036;-64
2021/12/16 09:06:19;;;;;;;63.30;22.05;;;6.30;99.90;;;;;;5140736;27;20501;-64
2021/12/16 09:08:45;;;;;;;95.97;22.63;;;6.30;99.90;;;;;;5140613;27;20051;-65
2021/12/16 09:11:18;;;;;;;135.88;22.77;;;6.20;99.90;;;;;;5139225;27;20121;-64
2021/12/16 09:13:44;;;;;;;82.40;21.83;;;6.30;99.90;;;;;;5130289;28;20146;-64
2021/12/16 09:16:14;;;;;;;90.50;21.08;;;6.30;99.90;;;;;;5119277;27;20122;-65
2021/12/16 09:18:41;;;;;;;138.70;22.02;;;6.30;99.90;;;;;;5118044;28;20513;-65
2021/12/16 09:21:11;;;;;;;131.75;21.55;;;6.30;99.90;;;;;;5139055;27;20126;-65
2021/12/16 09:23:37;;;;;;;156.82;23.00;;;6.30;99.90;;;;;;5105749;27;20421;-66
2021/12/16 09:26:04;;;;;;;176.25;21.80;;;6.30;99.90;;;;;;5122038;27;20388;-67
2021/12/16 09:28:30;;;;;;;171.15;20.95;;;6.30;99.90;;;;;;5140204;27;20104;-62
2021/12/16 09:30:56;;;;;;;160.00;22.08;;;6.30;99.90;;;;;;5114922;28;20134;-66
2021/12/16 09:33:25;;;;;;;85.50;18.80;;;6.30;99.90;;;;;;5130728;28;20079;-68
2021/12/16 09:35:54;;;;;;;196.98;21.98;;;6.40;99.90;;;;;;5130443;27;20096;-66
2021/12/16 09:38:20;;;;;;;180.02;21.30;;;6.40;99.90;;;;;;5112606;28;20134;-66
2021/12/16 09:40:53;;;;;;;96.85;19.10;;;6.30;99.90;;;;;;5112432;28;20050;-66
2021/12/16 09:43:22;;;;;;;239.13;22.73;;;6.30;99.90;;;;;;5081857;28;20474;-65
2021/12/16 09:45:49;;;;;;;102.88;18.83;;;6.40;99.90;;;;;;5116909;28;20555;-66
2021/12/16 09:48:14;;;;;;;;;;;6.30;99.90;;;;;;5099773;28;20464;-65
2021/12/16 09:50:40;;;;;;;181.18;21.00;;;6.30;99.90;;;;;;5097311;28;19927;-65
2021/12/16 09:53:06;;;;;;;196.65;21.55;;;6.40;99.90;;;;;;5098309;28;20044;-66
2021/12/16 09:55:34;;;;;;;139.13;20.98;;;6.30;99.90;;;;;;5098282;28;20490;-66
2021/12/16 09:58:01;;;;;;;86.45;19.45;;;6.30;99.90;;;;;;5117205;28;20051;-65
2021/12/16 10:00:29;;;;;;;173.93;22.45;;;6.30;99.90;;;;;;5098686;28;20082;-66
2021/12/16 10:02:56;;;;;;;171.98;22.83;;;6.40;99.90;;;;;;5098571;28;20528;-65
2021/12/16 10:05:24;;;;;;;170.38;23.10;;;6.30;99.90;;;;;;5117097;28;20052;-65
2021/12/16 10:07:50;;;;;;;52.22;20.00;;;6.50;99.90;;;;;;5098570;28;20044;-65
2021/12/16 10:10:24;;;;;;;88.82;20.08;;;6.50;99.90;;;;;;5098365;28;20054;-66
2021/12/16 10:12:51;;;;;;;66.60;19.85;;;6.60;99.90;;;;;;5098681;28;20497;-65
2021/12/16 10:18:08;;;;;;;97.65;22.48;;;6.60;99.90;;;;;;5099164;28;20051;-65
2021/12/16 10:20:56;;;;;;;91.18;21.65;;;6.70;99.90;;;;;;5098925;28;20477;-65
2021/12/16 10:23:24;;;;;;;109.43;21.88;;;6.80;99.90;;;;;;5117122;28;20416;-66
2021/12/16 10:25:54;;;;;;;68.05;19.95;;;6.80;99.90;;;;;;5098170;28;20043;-66
2021/12/16 10:28:23;;;;;;;56.85;19.10;;;6.90;99.90;;;;;;5116218;28;20040;-66
2021/12/16 10:31:06;;;;;;;70.28;19.73;;;6.90;99.90;;;;;;5097377;28;20431;-65
2021/12/16 10:33:52;;;;;;;42.90;18.70;;;7.00;99.90;;;;;;5115986;28;20479;-66
2021/12/16 10:36:22;;;;;;;40.47;18.05;;;7.00;99.90;;;;;;5116549;28;20421;-66
2021/12/16 10:38:54;;;;;;;47.95;17.55;;;7.10;99.90;;;;;;5097741;28;20051;-66
2021/12/16 10:41:24;;;;;;;43.90;17.20;;;7.20;99.90;;;;;;5097778;28;20043;-66
2021/12/16 10:44:01;;;;;;;63.55;17.25;;;7.20;99.90;;;;;;5116662;28;20043;-65
2021/12/16 10:46:30;;;;;;;45.30;17.15;;;7.30;99.90;;;;;;5097848;28;20051;-65
2021/12/16 10:49:03;;;;;;;45.92;17.92;;;7.30;99.90;;;;;;5115690;28;20050;-65
2021/12/16 10:51:35;;;;;;;49.03;16.30;;;7.30;99.90;;;;;;5115558;28;20045;-65
2021/12/16 10:54:25;;;;;;;37.38;15.65;;;7.30;99.90;;;;;;5096298;28;20043;-66
2021/12/16 10:57:07;;;;;;;33.72;14.73;;;7.40;99.90;;;;;;5115887;28;20059;-65
2021/12/16 10:59:50;;;;;;;46.92;16.92;;;7.40;99.90;;;;;;5116321;28;20078;-66
2021/12/16 11:02:32;;;;;;;38.50;14.57;;;7.50;99.90;;;;;;5098298;28;20123;-66
2021/12/16 11:05:02;;;;;;;58.22;14.98;;;7.50;99.90;;;;;;5097677;28;20056;-65
2021/12/16 11:07:33;;;;;;;37.17;15.80;;;7.50;99.90;;;;;;5115227;28;20079;-65
2021/12/16 11:10:12;;;;;;;35.65;15.52;;;7.50;99.90;;;;;;5097546;28;20388;-65
2021/12/16 11:12:42;;;;;;;45.60;16.27;;;7.50;99.90;;;;;;5115827;28;20051;-65
2021/12/16 11:15:13;;;;;;;41.30;15.48;;;7.60;99.90;;;;;;5115991;28;20365;-65
2021/12/16 11:17:48;;;;;;;48.45;16.80;;;7.60;99.90;;;;;;5115323;28;20073;-65
2021/12/16 11:20:33;;;;;;;44.85;15.90;;;7.60;99.90;;;;;;5096988;28;20134;-65
2021/12/16 11:23:26;;;;;;;41.20;15.63;;;7.60;99.90;;;;;;5115888;28;20040;-65
2021/12/16 11:26:00;;;;;;;51.78;16.20;;;7.70;99.90;;;;;;5096692;28;20047;-66
2021/12/16 11:28:31;;;;;;;31.95;15.60;;;7.70;99.90;;;;;;5115545;28;20092;-65
2021/12/16 11:31:15;;;;;;;43.40;16.30;;;7.80;99.90;;;;;;5093095;28;20048;-66
2021/12/16 11:33:44;;;;;;;59.45;17.25;;;7.80;99.90;;;;;;5094808;28;20056;-66
2021/12/16 11:36:18;;;;;;;75.82;17.13;;;7.80;99.90;;;;;;5093630;28;20400;-65
2021/12/16 11:38:59;;;;;;;56.25;15.85;;;7.90;99.90;;;;;;5093238;28;20074;-66
2021/12/16 11:41:39;;;;;;;68.72;18.85;;;7.90;99.90;;;;;;5094052;28;20040;-66
2021/12/16 11:44:18;;;;;;;54.85;20.95;;;7.90;99.90;;;;;;5093825;28;20044;-66
2021/12/16 11:46:46;;;;;;;64.32;17.35;;;7.90;99.90;;;;;;5092654;28;20040;-66
2021/12/16 11:49:20;;;;;;;42.83;15.98;;;8.00;99.90;;;;;;5093816;28;20434;-66
2021/12/16 11:55:16;;;;;;;51.30;16.83;;;8.00;99.90;;;;;;5091303;28;20044;-64
2021/12/16 11:57:52;;;;;;;50.03;17.92;;;8.00;99.90;;;;;;5088595;28;20044;-63
2021/12/16 12:00:25;;;;;;;45.00;17.73;;;8.10;99.90;;;;;;5082007;28;20036;-65
2021/12/16 12:03:00;;;;;;;43.03;18.30;;;8.10;99.90;;;;;;5081916;28;20048;-64
2021/12/16 12:05:44;;;;;;;70.45;18.20;;;8.10;99.90;;;;;;5091327;28;20391;-63
2021/12/16 12:08:14;;;;;;;54.85;18.25;;;8.10;99.90;;;;;;5091365;28;20048;-64
2021/12/16 12:10:48;;;;;;;59.38;18.23;;;8.20;99.90;;;;;;5092099;28;20483;-63
2021/12/16 12:13:23;;;;;;;51.42;19.45;;;8.30;99.90;;;;;;5093688;28;20131;-64
2021/12/16 12:16:03;;;;;;;42.88;18.38;;;8.20;99.90;;;;;;5093673;28;20051;-64
2021/12/16 12:18:48;;;;;;;44.20;18.38;;;8.20;99.90;;;;;;5093773;28;20044;-64
2021/12/16 12:21:23;;;;;;;69.78;20.42;;;8.30;99.90;;;;;;5094350;28;20425;-65
2021/12/16 12:24:11;;;;;;;46.53;20.67;;;8.30;99.90;;;;;;5093683;28;20052;-64
2021/12/16 12:26:45;;;;;;;53.50;21.98;;;8.30;99.90;;;;;;5082146;28;20063;-64
2021/12/16 12:29:16;;;;;;;70.22;18.20;;;8.30;99.90;;;;;;5076064;28;20131;-64
2021/12/16 12:31:49;;;;;;;94.90;18.38;;;8.30;99.90;;;;;;5124682;28;20134;-63
2021/12/16 12:34:16;;;;;;;52.35;17.20;;;8.30;99.90;;;;;;5135113;28;20489;-64
2021/12/16 12:36:43;;;;;;;44.53;16.73;;;8.30;99.90;;;;;;5134782;27;20092;-64
2021/12/16 12:39:13;;;;;;;53.28;16.63;;;8.40;99.90;;;;;;5131212;28;20043;-64
2021/12/16 12:41:38;;;;;;;42.53;15.90;;;8.40;99.90;;;;;;5122553;28;20115;-64
2021/12/16 12:44:05;;;;;;;47.20;16.30;;;8.40;99.90;;;;;;5103312;28;20072;-64
2021/12/16 12:46:36;;;;;;;;;;;8.40;99.90;;;;;;5122286;27;20095;-64
2021/12/16 12:49:07;;;;;;;116.05;16.80;;;8.40;99.90;;;;;;5124740;28;19920;-63
2021/12/16 12:51:46;;;;;;;81.18;16.63;;;8.40;99.90;;;;;;5123672;28;20122;-64
2021/12/16 12:54:23;;;;;;;52.08;15.80;;;8.40;99.90;;;;;;5123594;28;20443;-64
2021/12/16 12:56:51;;;;;;;84.63;16.10;;;8.50;99.90;;;;;;5123628;27;20134;-65
2021/12/16 12:59:17;;;;;;;123.45;17.90;;;8.50;99.90;;;;;;5123977;28;20075;-64
2021/12/16 13:01:53;;;;;;;56.42;16.30;;;8.50;99.90;;;;;;5124131;28;20402;-65
2021/12/16 13:04:24;;;;;;;128.18;18.60;;;8.60;99.90;;;;;;5123413;28;20043;-65
2021/12/16 13:06:52;;;;;;;59.50;16.23;;;8.60;99.90;;;;;;5107231;28;20053;-65
2021/12/16 13:09:43;;;;;;;58.70;17.67;;;8.60;99.90;;;;;;5119623;28;20071;-64
2021/12/16 13:12:30;;;;;;;79.82;18.30;;;8.70;99.90;;;;;;5093511;28;20055;-64
2021/12/16 13:15:07;;;;;;;73.22;18.88;;;8.60;99.90;;;;;;5100327;28;20470;-64
2021/12/16 13:27:31;;;;;;;99.55;33.35;;;8.60;99.90;;;;;;5137501;27;20502;-64
2021/12/16 13:30:15;;;;;;;82.50;23.52;;;8.60;99.90;;;;;;5116369;27;20153;-64
2021/12/16 13:32:46;;;;;;;56.63;21.33;;;8.60;99.90;;;;;;5128256;27;20075;-64
2021/12/16 13:37:47;;;;;;;70.72;22.77;;;8.60;99.90;;;;;;5137728;27;20059;-64
2021/12/16 13:40:23;;;;;;;65.65;22.83;;;8.60;99.90;;;;;;5137669;27;20058;-65
2021/12/16 13:43:10;;;;;;;73.07;23.23;;;8.60;99.90;;;;;;5119808;27;20126;-64
2021/12/16 13:45:57;;;;;;;69.68;23.45;;;8.60;99.90;;;;;;5119767;27;20047;-64
2021/12/16 14:05:31;;;;;;;38.90;17.60;;;8.70;99.90;;;;;;5136957;27;20561;-64
2021/12/16 14:08:06;;;;;;;53.15;21.83;;;8.70;99.90;;;;;;5137664;27;20359;-64
2021/12/16 14:25:54;;;;;;;53.58;23.52;;;8.80;99.90;;;;;;5118939;27;20051;-64
2021/12/16 14:38:53;;;;;;;54.45;24.27;;;8.80;99.90;;;;;;5124746;27;20047;-64
2021/12/16 14:46:44;;;;;;;;;;;8.90;99.90;;;;;;5098455;28;20441;-65
2021/12/16 14:49:10;;;;;;;61.65;23.52;;;8.80;99.90;;;;;;5105835;27;19966;-64
2021/12/16 14:51:36;;;;;;;59.00;25.45;;;8.90;99.90;;;;;;5105243;27;20074;-65
2021/12/16 14:54:03;;;;;;;46.95;24.55;;;8.80;99.90;;;;;;5126456;27;20042;-67
2021/12/16 14:56:39;;;;;;;46.88;22.35;;;8.90;99.90;;;;;;5090061;27;20047;-67
2021/12/16 14:59:12;;;;;;;50.45;23.70;;;8.90;99.90;;;;;;5106662;27;20044;-67
2021/12/16 15:01:48;;;;;;;52.83;23.83;;;8.90;99.90;;;;;;5124316;27;20091;-67
2021/12/16 15:04:17;;;;;;;63.80;24.48;;;8.90;99.90;;;;;;5106464;27;20054;-67
2021/12/16 15:06:51;;;;;;;58.40;24.35;;;8.90;99.90;;;;;;5106422;27;20047;-67
2021/12/16 15:09:33;;;;;;;50.22;22.92;;;8.90;99.90;;;;;;5106000;27;20083;-66
2021/12/16 15:12:13;;;;;;;65.90;24.63;;;8.90;99.90;;;;;;5105834;27;20039;-67
2021/12/16 15:44:50;;;;;;;42.35;19.88;;;9.00;99.90;;;;;;5124715;27;20047;-66
2021/12/16 15:47:16;;;;;;;45.38;20.17;;;9.00;99.90;;;;;;5123230;27;20059;-66
2021/12/16 15:49:43;;;;;;;36.42;19.52;;;9.00;99.90;;;;;;5124859;27;20047;-67
2021/12/16 15:52:09;;;;;;;41.65;19.33;;;9.00;99.90;;;;;;5107209;27;20184;-66
2021/12/16 15:54:39;;;;;;;41.10;19.48;;;9.00;99.90;;;;;;5125662;27;20038;-67
2021/12/16 15:57:06;;;;;;;43.70;19.08;;;9.00;99.90;;;;;;5123944;27;20096;-67
2021/12/16 15:59:33;;;;;;;44.45;19.77;;;8.90;99.90;;;;;;5104895;27;20042;-66
2021/12/16 16:02:00;;;;;;;44.00;19.75;;;8.90;99.90;;;;;;5122440;27;20043;-66
2021/12/16 16:04:34;;;;;;;45.30;20.13;;;8.90;99.90;;;;;;5106875;27;20039;-67
2021/12/16 16:07:09;;;;;;;43.50;19.67;;;8.90;99.90;;;;;;5123339;27;20035;-66
2021/12/16 16:09:41;;;;;;;45.35;19.45;;;8.90;99.90;;;;;;5122915;27;20039;-65
2021/12/16 16:12:12;;;;;;;46.72;21.15;;;8.90;99.90;;;;;;5123772;27;20122;-64
2021/12/16 16:14:41;;;;;;;47.67;21.35;;;8.90;99.90;;;;;;5124991;27;20031;-64
2021/12/16 16:17:14;;;;;;;58.55;22.88;;;8.90;99.90;;;;;;5105738;27;20039;-64
2021/12/16 16:19:41;;;;;;;53.20;22.88;;;8.90;99.90;;;;;;5123204;27;20044;-64
2021/12/16 16:22:07;;;;;;;58.30;23.65;;;8.90;99.90;;;;;;5123658;27;20089;-65
2021/12/16 16:24:42;;;;;;;53.47;22.77;;;8.90;99.90;;;;;;5106815;28;20502;-65
2021/12/16 16:27:12;;;;;;;48.45;22.05;;;8.90;99.90;;;;;;5123562;27;20376;-64
2021/12/16 16:29:38;;;;;;;54.67;20.48;;;8.90;99.90;;;;;;5106696;28;20051;-65
2021/12/16 16:32:06;;;;;;;53.20;21.67;;;8.90;99.90;;;;;;5123457;28;20424;-65
2021/12/16 16:34:58;;;;;;;53.40;21.80;;;8.90;99.90;;;;;;5124479;28;20043;-64
2021/12/16 16:37:33;;;;;;;54.10;22.17;;;8.90;99.90;;;;;;5104259;28;20052;-65
2021/12/16 16:40:07;;;;;;;54.15;21.33;;;8.90;99.90;;;;;;5122993;28;20397;-64
2021/12/16 16:42:41;;;;;;;61.10;22.55;;;8.90;99.90;;;;;;5124301;28;20052;-65
2021/12/16 16:45:18;;;;;;;54.85;23.30;;;8.90;99.90;;;;;;5116500;28;20043;-65
2021/12/16 16:47:52;;;;;;;;;;;8.90;99.90;;;;;;5119708;28;20050;-65
2021/12/16 16:50:20;;;;;;;63.08;23.60;;;8.90;99.90;;;;;;5121853;28;20019;-64
2021/12/16 16:52:49;;;;;;;62.67;24.08;;;8.90;99.90;;;;;;5125816;27;20368;-64
2021/12/16 16:55:16;;;;;;;59.35;22.98;;;8.90;99.90;;;;;;5108614;27;20047;-64
2021/12/16 16:57:51;;;;;;;62.75;23.63;;;8.90;99.90;;;;;;5124101;27;20051;-64
2021/12/16 17:00:17;;;;;;;59.40;24.25;;;8.90;99.90;;;;;;5117703;28;20124;-63
2021/12/16 17:02:46;;;;;;;60.40;25.73;;;8.90;99.90;;;;;;5117741;28;20132;-66
2021/12/16 17:05:23;;;;;;;68.00;26.25;;;8.90;99.90;;;;;;5099074;28;20079;-65
2021/12/16 17:08:12;;;;;;;67.50;26.77;;;8.90;99.90;;;;;;5117360;28;20054;-65
2021/12/16 17:10:53;;;;;;;83.20;28.70;;;8.90;99.90;;;;;;5120763;27;20497;-67
2021/12/16 17:13:36;;;;;;;79.32;28.73;;;8.90;99.90;;;;;;5107435;28;20122;-64
2021/12/16 17:18:42;;;;;;;84.03;29.42;;;8.90;99.90;;;;;;5127023;27;20423;-66
2021/12/16 17:21:24;;;;;;;83.22;30.40;;;8.90;99.90;;;;;;5126742;27;20046;-65
2021/12/16 17:23:56;;;;;;;85.00;29.83;;;8.90;99.90;;;;;;5110053;27;20410;-65
2021/12/16 17:26:30;;;;;;;79.10;28.50;;;8.90;99.90;;;;;;5109244;27;20044;-65
2021/12/16 17:29:00;;;;;;;91.40;30.20;;;9.00;99.90;;;;;;5108423;27;20047;-65
2021/12/16 17:31:33;;;;;;;71.75;27.75;;;8.90;99.90;;;;;;5107807;27;20079;-65
2021/12/16 17:34:43;;;;;;;81.78;28.33;;;8.90;99.90;;;;;;5108415;27;20044;-65
2021/12/16 17:37:25;;;;;;;77.90;27.95;;;8.90;99.90;;;;;;5106449;27;20044;-65
2021/12/16 17:39:57;;;;;;;86.53;28.83;;;8.90;99.90;;;;;;5125518;27;20127;-65
2021/12/16 17:42:34;;;;;;;103.50;30.85;;;8.90;99.90;;;;;;5117199;27;20070;-67
2021/12/16 17:45:12;;;;;;;97.07;29.65;;;8.90;99.90;;;;;;5125913;27;20075;-65
2021/12/16 17:47:39;;;;;;;91.95;29.95;;;8.90;99.90;;;;;;5125306;27;20380;-66
2021/12/16 17:50:11;;;;;;;90.85;29.02;;;8.90;99.90;;;;;;5108906;27;20068;-66
2021/12/16 17:52:37;;;;;;;93.68;29.38;;;8.90;99.90;;;;;;5124942;27;20486;-66
2021/12/16 17:55:08;;;;;;;;;;;8.90;99.90;;;;;;5123466;27;20083;-67
2021/12/16 17:57:38;;;;;;;79.05;29.13;;;8.90;99.90;;;;;;5098627;28;19926;-66
2021/12/16 18:00:21;;;;;;;138.80;33.20;;;8.90;99.90;;;;;;5117250;28;20050;-66
2021/12/16 18:02:47;;;;;;;98.28;29.40;;;8.90;99.90;;;;;;5098402;28;20043;-65
2021/12/16 18:05:13;;;;;;;;;;;8.90;99.90;;;;;;5099298;28;20043;-67
2021/12/16 18:07:41;;;;;;;116.18;29.80;;;8.80;99.90;;;;;;5116544;28;19919;-66
2021/12/16 18:10:09;;;;;;;129.02;31.48;;;8.80;99.90;;;;;;5098487;28;20074;-66
2021/12/16 18:12:36;;;;;;;99.20;30.08;;;8.80;99.90;;;;;;5082249;28;20051;-67
2021/12/16 18:15:11;;;;;;;67.22;25.15;;;8.80;99.90;;;;;;5116468;28;20058;-66
2021/12/16 18:17:45;;;;;;;88.80;22.73;;;8.80;99.90;;;;;;5116900;28;20081;-66
2021/12/16 18:20:33;;;;;;;80.35;20.08;;;8.70;99.90;;;;;;5098675;28;20086;-65
2021/12/16 18:23:03;;;;;;;83.15;19.70;;;8.80;99.90;;;;;;5098299;28;20043;-65
2021/12/16 18:25:33;;;;;;;80.90;19.50;;;8.70;99.90;;;;;;5116281;28;20044;-65
2021/12/16 18:28:01;;;;;;;73.97;18.77;;;8.80;99.90;;;;;;5118045;27;20043;-65
2021/12/16 18:30:37;;;;;;;115.72;20.63;;;8.70;99.90;;;;;;5106879;27;20083;-66
2021/12/16 18:33:07;;;;;;;103.93;19.77;;;8.70;99.90;;;;;;5127113;27;20203;-65
2021/12/16 18:35:35;;;;;;;55.95;18.85;;;8.70;99.90;;;;;;5104339;27;20100;-66
2021/12/16 18:38:07;;;;;;;62.13;19.52;;;8.70;99.90;;;;;;5125942;27;20385;-66
2021/12/16 18:40:33;;;;;;;69.10;18.45;;;8.70;99.90;;;;;;5106659;27;20052;-65
2021/12/16 18:43:00;;;;;;;90.18;19.92;;;8.70;99.90;;;;;;5107227;27;20126;-66
2021/12/16 18:45:28;;;;;;;56.38;18.48;;;8.70;99.90;;;;;;5126685;27;20071;-67
2021/12/16 18:55:47;;;;;;;76.85;22.77;;;8.70;99.90;;;;;;5125946;27;20126;-66
2021/12/16 18:58:14;;;;;;;69.07;21.42;;;8.70;99.90;;;;;;5106249;27;20122;-67
2021/12/16 19:00:43;;;;;;;80.80;22.13;;;8.70;99.90;;;;;;5124893;27;20525;-65
2021/12/16 19:03:09;;;;;;;104.03;27.33;;;8.70;99.90;;;;;;5126204;27;20096;-65
2021/12/16 19:05:35;;;;;;;;;;;8.70;99.90;;;;;;5114894;27;20086;-65
2021/12/16 19:08:01;;;;;;;73.55;22.42;;;8.70;99.90;;;;;;5134647;27;20557;-66
2021/12/16 19:10:29;;;;;;;101.63;22.98;;;8.70;99.90;;;;;;5117580;27;20039;-65
2021/12/16 19:12:57;;;;;;;62.28;20.77;;;8.70;99.90;;;;;;5117518;27;20139;-65
2021/12/16 19:15:29;;;;;;;72.43;21.35;;;8.70;99.90;;;;;;5134904;27;20054;-66
2021/12/16 19:17:57;;;;;;;66.45;20.55;;;8.70;99.90;;;;;;5135568;27;20130;-65
2021/12/16 19:20:27;;;;;;;58.00;20.15;;;8.70;99.90;;;;;;5134778;27;20542;-66
2021/12/16 19:22:53;;;;;;;100.85;21.88;;;8.60;99.90;;;;;;5117078;27;20047;-67
2021/12/16 19:25:23;;;;;;;68.22;20.00;;;8.60;99.90;;;;;;5135321;27;20119;-65
2021/12/16 19:27:50;;;;;;;78.07;20.70;;;8.70;99.90;;;;;;5117016;27;20047;-65
2021/12/16 19:30:19;;;;;;;81.28;22.02;;;8.60;99.90;;;;;;5100236;27;20067;-66
2021/12/16 19:32:45;;;;;;;70.93;20.83;;;8.60;99.90;;;;;;5135522;27;20143;-65
2021/12/16 19:35:12;;;;;;;61.65;19.98;;;8.50;99.90;;;;;;5135122;27;20081;-66
2021/12/16 19:37:39;;;;;;;56.90;19.05;;;8.60;99.90;;;;;;5117188;27;20043;-65
2021/12/16 19:40:27;;;;;;;87.38;20.75;;;8.60;99.90;;;;;;5116927;27;20471;-65
2021/12/16 19:42:57;;;;;;;72.50;19.27;;;8.60;99.90;;;;;;5116375;27;20062;-65
2021/12/16 19:45:26;;;;;;;83.63;19.92;;;8.50;99.90;;;;;;5135253;27;20054;-65
2021/12/16 19:47:53;;;;;;;88.93;21.17;;;8.50;99.90;;;;;;5135322;27;20436;-65
2021/12/16 19:50:22;;;;;;;74.00;19.98;;;8.50;99.90;;;;;;5135097;27;20043;-65
2021/12/16 19:52:48;;;;;;;106.05;21.40;;;8.50;99.90;;;;;;5118373;27;20052;-66
2021/12/16 19:55:14;;;;;;;82.30;19.80;;;8.50;99.90;;;;;;5120335;27;20042;-66
2021/12/16 19:57:41;;;;;;;78.63;19.00;;;8.50;99.90;;;;;;5124532;27;20039;-65
2021/12/16 20:00:11;;;;;;;81.45;18.05;;;8.50;99.90;;;;;;5124912;27;20043;-66
2021/12/16 20:02:37;;;;;;;88.20;19.63;;;8.50;99.90;;;;;;5105575;27;20044;-65
2021/12/16 20:05:05;;;;;;;60.25;18.08;;;8.50;99.90;;;;;;5088957;27;20111;-66
2021/12/16 20:07:33;;;;;;;58.80;19.15;;;8.50;99.90;;;;;;5107160;27;20049;-65
2021/12/16 20:09:59;;;;;;;62.15;19.27;;;8.50;99.90;;;;;;5116915;27;20043;-66
2021/12/16 20:12:26;;;;;;;;;;;8.50;99.90;;;;;;5135228;27;20042;-66
2021/12/16 20:14:54;;;;;;;53.08;19.35;;;8.50;99.90;;;;;;5135431;27;20408;-66
2021/12/16 20:17:24;;;;;;;64.13;21.27;;;8.50;99.90;;;;;;5134424;27;20046;-66
2021/12/16 20:19:55;;;;;;;93.43;22.65;;;8.50;99.90;;;;;;5135128;27;20075;-66
2021/12/16 20:22:31;;;;;;;74.22;20.58;;;8.50;99.90;;;;;;5134671;27;20102;-67
2021/12/16 20:24:59;;;;;;;70.15;20.33;;;8.50;99.90;;;;;;5135167;27;20048;-66
2021/12/16 20:27:35;;;;;;;91.55;20.75;;;8.50;99.90;;;;;;5099411;27;20055;-66
2021/12/16 20:30:15;;;;;;;62.97;17.38;;;8.50;99.90;;;;;;5134697;27;20047;-65
2021/12/16 20:32:47;;;;;;;68.53;17.45;;;8.50;99.90;;;;;;5134692;28;20134;-65
2021/12/16 20:35:24;;;;;;;83.03;17.90;;;8.40;99.90;;;;;;5129503;28;20040;-67
2021/12/16 20:37:50;;;;;;;118.43;18.50;;;8.40;99.90;;;;;;5122896;28;20056;-65
2021/12/16 20:40:22;;;;;;;72.45;17.08;;;8.40;99.90;;;;;;5134540;28;20081;-65
2021/12/16 20:42:54;;;;;;;67.15;15.68;;;8.40;99.90;;;;;;5134876;28;20043;-66
2021/12/16 20:45:37;;;;;;;103.95;18.08;;;8.40;99.90;;;;;;5134437;28;20051;-66
2021/12/16 20:48:04;;;;;;;106.57;19.38;;;8.40;99.90;;;;;;5134337;27;20089;-66
2021/12/16 20:50:35;;;;;;;78.88;18.35;;;8.40;99.90;;;;;;5116741;28;20122;-66
2021/12/16 20:53:03;;;;;;;73.03;18.55;;;8.40;99.90;;;;;;5116349;28;20502;-65
2021/12/16 20:55:29;;;;;;;114.97;20.33;;;8.40;99.90;;;;;;5112744;28;20043;-64
2021/12/16 20:57:58;;;;;;;;;;;8.40;99.90;;;;;;5114669;28;20055;-66
2021/12/16 21:00:27;;;;;;;89.95;18.60;;;8.50;99.90;;;;;;5113790;28;19931;-66
2021/12/16 21:02:54;;;;;;;66.10;17.52;;;8.40;99.90;;;;;;5114000;28;20040;-67
2021/12/16 21:05:24;;;;;;;46.78;14.93;;;8.40;99.90;;;;;;5113695;28;20052;-66
2021/12/16 21:07:50;;;;;;;65.32;16.50;;;8.40;99.90;;;;;;5113698;28;20097;-65
2021/12/16 21:10:16;;;;;;;59.88;14.77;;;8.40;99.90;;;;;;5113632;28;20048;-66
2021/12/16 21:12:42;;;;;;;103.70;17.23;;;8.40;99.90;;;;;;5113676;28;20131;-65
2021/12/16 21:15:09;;;;;;;46.95;14.52;;;8.40;99.90;;;;;;5112925;28;20381;-65
2021/12/16 21:17:36;;;;;;;50.00;14.15;;;8.40;99.90;;;;;;5113506;28;20205;-66
2021/12/16 21:20:06;;;;;;;50.35;14.23;;;8.40;99.90;;;;;;5112541;28;20481;-65
2021/12/16 21:22:32;;;;;;;54.63;14.65;;;8.40;99.90;;;;;;5112638;28;20060;-66
2021/12/16 21:24:58;;;;;;;107.65;16.77;;;8.40;99.90;;;;;;5114123;28;20048;-65
2021/12/16 21:27:26;;;;;;;66.03;14.85;;;8.40;99.90;;;;;;5113366;28;20082;-65
2021/12/16 21:29:52;;;;;;;72.70;15.75;;;8.40;99.90;;;;;;5113427;28;20043;-65
2021/12/16 21:32:18;;;;;;;93.38;16.85;;;8.30;99.90;;;;;;5113574;28;20087;-65
2021/12/16 21:34:54;;;;;;;81.53;14.95;;;8.30;99.90;;;;;;5113942;28;20047;-66
2021/12/16 21:37:20;;;;;;;59.83;13.27;;;8.30;99.90;;;;;;5113009;28;20118;-65
2021/12/16 21:39:47;;;;;;;83.40;14.50;;;8.30;99.90;;;;;;5117107;28;20189;-65
2021/12/16 21:42:19;;;;;;;78.20;14.38;;;8.30;99.90;;;;;;5117131;28;20047;-66
2021/12/16 21:44:45;;;;;;;68.68;13.80;;;8.20;99.90;;;;;;5117153;28;20051;-66
2021/12/16 21:47:10;;;;;;;62.17;14.20;;;8.20;99.90;;;;;;5117402;28;20048;-65
2021/12/16 21:49:36;;;;;;;62.67;13.82;;;8.20;99.90;;;;;;5116803;28;20043;-65
2021/12/16 21:52:04;;;;;;;43.42;12.25;;;8.20;99.90;;;;;;5126578;27;20072;-65
2021/12/16 21:54:31;;;;;;;42.35;12.85;;;8.30;99.90;;;;;;5137576;27;20506;-65
2021/12/16 21:56:57;;;;;;;53.03;13.13;;;8.30;99.90;;;;;;5113056;27;20100;-65
2021/12/16 21:59:23;;;;;;;59.80;13.40;;;8.30;99.90;;;;;;5106335;28;20491;-67
